Alconbury RAF, United Kingdom

1:40 AM BST on July 24, 2016 (GMT +0100)
Alconbury Weston | | Change Station

Elev 79 ft 52.37 °N, 0.28 °W | Updated 8 seconds ago

Partly Cloudy
Partly Cloudy
63.0 °F
Feels Like 63.0 °F
N
0.0
Wind Variable Wind from WSW
Gusts 0.0 mph

Today
High -- | Low -- °F
--% Chance of Precip.
Yesterday
High -- | Low -- °F
Precip. -- in
Pressure 30.09 in
Visibility 6.2 miles
Clouds Few 4700 ft
Dew Point 57 °F
Humidity 81%
Rainfall 0.00 in
Snow Depth Not available.
5:09 AM 9:04 PM
Waning Gibbous, 81% visible
METAR EGXT 232350Z AUTO 26007KT 9999 FEW047/// 17/14 Q1019
Pressure 30.09 in
Visibility 6.2 miles
Clouds Few 4700 ft
Dew Point 57 °F
Humidity 81%
Rainfall 0.00 in
Snow Depth Not available.
5:09 AM 9:04 PM
Waning Gibbous, 81% visible
METAR EGXT 232350Z AUTO 26007KT 9999 FEW047/// 17/14 Q1019

10-Day Weather Forecast

×

Almanac

Astronomy

Jul. 24, 2016 Rise Set
Actual Time
Civil Twilight
Nautical Twilight
Astronomical Twilight
Moon
Length of Visible Light
Length of Day
Tomorrow will be .
, % of the Moon is Illuminated

Today's Extremes

Country Highs Country Lows

Community

WunderPhotos

Upload Photos

1,926,982 photos uploaded!

WunderBlog® & News

Nearby

Air Quality

  Air Quality AQ Index Pollutant
Not available.

Snow Depth

Station Depth Elevation

Earthquake Activity

City Distance Mag. Time & Date
Minimum magnitude displayed is 2.5.

Coastal Water Temperatures

Place Temperature

Stations

Nearby Weather Stations

Station Location Temp. Windchill Dew Point Humidity Wind Precip. Elev Updated Type